Time;durP1;ratioP1;P1;durP2;ratioP2;P2;SDS_P1;SDS_P2;PMS_P1;PMS_P2;Temp;Humidity;BMP_temperature;BMP_pressure;BME280_temperature;BME280_humidity;BME280_pressure;Samples;Min_cycle;Max_cycle;Signal;HPM_P1;HPM_P2
2022/11/02 00:01:13;;;;;;;12.25;1.70;;;14.40;99.90;;;;;;5049373;28;20068;-71
2022/11/02 00:03:39;;;;;;;9.52;1.75;;;14.40;99.90;;;;;;5042383;28;20053;-72
2022/11/02 00:06:04;;;;;;;12.63;2.08;;;14.40;99.90;;;;;;5041769;28;20063;-72
2022/11/02 00:08:30;;;;;;;13.23;1.77;;;14.40;99.90;;;;;;5042725;28;20033;-71
2022/11/02 00:10:58;;;;;;;12.98;1.73;;;14.40;99.90;;;;;;5040528;28;20028;-71
2022/11/02 00:13:26;;;;;;;17.08;2.22;;;14.40;99.90;;;;;;5044003;28;20059;-71
2022/11/02 00:15:52;;;;;;;18.83;2.17;;;14.40;99.90;;;;;;5041009;28;20025;-71
2022/11/02 00:18:18;;;;;;;11.90;2.03;;;14.50;99.90;;;;;;5041611;28;20037;-71
2022/11/02 00:20:43;;;;;;;19.80;2.05;;;14.40;99.90;;;;;;5039385;28;20014;-71
2022/11/02 00:23:13;;;;;;;12.70;2.13;;;14.40;99.90;;;;;;5041022;28;20025;-71
2022/11/02 00:25:42;;;;;;;15.00;1.73;;;14.40;99.90;;;;;;5037597;28;20104;-72
2022/11/02 00:28:08;;;;;;;11.52;1.85;;;14.50;99.90;;;;;;5040601;28;20025;-71
2022/11/02 00:30:34;;;;;;;9.07;1.20;;;14.50;99.90;;;;;;5045532;28;20123;-71
2022/11/02 00:33:02;;;;;;;16.42;2.15;;;14.60;99.90;;;;;;5040131;28;20098;-73
2022/11/02 00:35:28;;;;;;;13.02;2.30;;;14.50;99.90;;;;;;5045526;28;20461;-71
2022/11/02 00:37:53;;;;;;;13.20;2.10;;;14.50;99.90;;;;;;5041825;28;20104;-72
2022/11/02 00:40:19;;;;;;;7.40;1.55;;;14.60;99.90;;;;;;5036567;28;20358;-73
2022/11/02 00:42:47;;;;;;;15.90;2.35;;;14.60;99.90;;;;;;5040259;28;20449;-74
2022/11/02 00:45:12;;;;;;;11.93;1.30;;;14.70;99.90;;;;;;5044644;28;20017;-72
2022/11/02 00:47:38;;;;;;;14.20;1.52;;;14.70;99.90;;;;;;5040121;28;20019;-72
2022/11/02 00:50:07;;;;;;;9.63;1.63;;;14.80;99.90;;;;;;5041637;28;20064;-73
2022/11/02 00:52:32;;;;;;;13.40;1.60;;;14.70;99.90;;;;;;5039089;28;20351;-71
2022/11/02 00:54:58;;;;;;;8.98;1.50;;;14.80;99.90;;;;;;5040127;28;20022;-74
2022/11/02 00:57:24;;;;;;;12.02;1.52;;;14.80;99.90;;;;;;5041112;28;20033;-71
2022/11/02 00:59:49;;;;;;;12.43;2.05;;;14.80;99.90;;;;;;5041304;28;20465;-72
2022/11/02 01:02:15;;;;;;;9.70;1.27;;;14.80;99.90;;;;;;5038153;28;20037;-71
2022/11/02 01:04:41;;;;;;;10.43;1.35;;;14.80;99.90;;;;;;5039465;28;20017;-72
2022/11/02 01:07:09;;;;;;;11.38;1.77;;;14.80;99.90;;;;;;5037557;28;20409;-72
2022/11/02 01:09:37;;;;;;;10.88;2.20;;;14.80;99.90;;;;;;5076726;28;20029;-71
2022/11/02 01:12:06;;;;;;;9.73;1.08;;;14.80;99.90;;;;;;5042143;28;20434;-73
2022/11/02 01:14:32;;;;;;;10.25;1.58;;;14.80;99.90;;;;;;5038978;28;20035;-74
2022/11/02 01:16:58;;;;;;;15.20;2.10;;;14.80;99.90;;;;;;5040960;28;20026;-71
2022/11/02 01:19:24;;;;;;;10.27;1.75;;;14.90;99.90;;;;;;5042508;28;20049;-71
2022/11/02 01:21:50;;;;;;;8.88;1.30;;;14.80;99.90;;;;;;5067503;28;20029;-71
2022/11/02 01:24:18;;;;;;;7.68;1.80;;;14.80;99.90;;;;;;5052524;28;20051;-73
2022/11/02 01:26:44;;;;;;;9.55;1.83;;;14.80;99.90;;;;;;5040258;28;20060;-73
2022/11/02 01:29:10;;;;;;;7.68;1.70;;;14.90;99.90;;;;;;5037799;28;20057;-75
2022/11/02 01:31:35;;;;;;;16.02;1.60;;;14.90;99.90;;;;;;5036086;28;20024;-72
2022/11/02 01:34:06;;;;;;;8.07;1.38;;;14.90;99.90;;;;;;5042420;28;20025;-73
2022/11/02 01:36:32;;;;;;;12.30;1.80;;;14.90;99.90;;;;;;5032248;28;20059;-72
2022/11/02 01:38:57;;;;;;;7.95;1.42;;;15.00;99.90;;;;;;5041256;28;20062;-73
2022/11/02 01:41:23;;;;;;;11.65;1.27;;;14.90;99.90;;;;;;5045088;28;20025;-71
2022/11/02 01:43:53;;;;;;;10.57;1.42;;;15.00;99.90;;;;;;5039858;28;20017;-72
2022/11/02 01:46:24;;;;;;;12.13;1.70;;;15.00;99.90;;;;;;5044657;28;20066;-72
2022/11/02 01:49:08;;;;;;;14.80;1.63;;;15.00;99.90;;;;;;5071097;28;20037;-74
2022/11/02 01:51:53;;;;;;;7.30;1.48;;;14.90;99.90;;;;;;5039854;28;20107;-75
2022/11/02 01:54:26;;;;;;;6.80;1.27;;;14.90;99.90;;;;;;5028958;28;20132;-73
2022/11/02 01:57:03;;;;;;;10.27;1.70;;;14.90;99.90;;;;;;5043774;28;20469;-75
2022/11/02 01:59:37;;;;;;;8.80;1.40;;;14.90;99.90;;;;;;5053778;28;20394;-74
2022/11/02 02:02:12;;;;;;;13.20;2.20;;;14.90;99.90;;;;;;5044473;28;20020;-71
2022/11/02 02:04:39;;;;;;;13.35;1.70;;;14.90;99.90;;;;;;5043160;28;20081;-72
2022/11/02 02:07:05;;;;;;;15.02;1.83;;;14.80;99.90;;;;;;5040418;28;20053;-75
2022/11/02 02:09:31;;;;;;;8.27;1.27;;;14.80;99.90;;;;;;5036564;28;20021;-74
2022/11/02 02:11:57;;;;;;;11.65;1.48;;;14.70;99.90;;;;;;5042290;28;20021;-71
2022/11/02 02:14:23;;;;;;;12.27;1.50;;;14.70;99.90;;;;;;5042319;28;20079;-73
2022/11/02 02:17:07;;;;;;;13.68;1.52;;;14.80;99.90;;;;;;5038479;28;20024;-75
2022/11/02 02:19:52;;;;;;;9.27;1.50;;;14.70;99.90;;;;;;5040272;28;20119;-73
2022/11/02 02:22:50;;;;;;;8.63;1.98;;;14.60;99.90;;;;;;5041042;28;20033;-73
2022/11/02 02:25:37;;;;;;;10.10;1.38;;;14.70;99.90;;;;;;5055427;28;20037;-72
2022/11/02 02:28:26;;;;;;;8.75;1.23;;;14.70;99.90;;;;;;5042944;28;20074;-71
2022/11/02 02:31:11;;;;;;;12.70;1.48;;;14.70;99.90;;;;;;5080431;28;20107;-73
2022/11/02 02:33:58;;;;;;;11.65;1.48;;;14.70;99.60;;;;;;5042353;28;20025;-73
2022/11/02 02:36:31;;;;;;;11.23;1.75;;;14.60;99.50;;;;;;5047255;28;20021;-74
2022/11/02 02:39:28;;;;;;;8.40;0.90;;;14.70;99.50;;;;;;5043758;28;20029;-74
2022/11/02 02:42:03;;;;;;;6.35;1.23;;;14.60;99.40;;;;;;5048579;28;20029;-74
2022/11/02 02:44:34;;;;;;;6.57;1.65;;;14.70;99.50;;;;;;5055216;28;20205;-72
2022/11/02 02:47:13;;;;;;;13.52;1.83;;;14.70;99.50;;;;;;5047177;28;20132;-73
2022/11/02 02:49:52;;;;;;;10.30;0.90;;;14.70;99.50;;;;;;5041664;28;20017;-73
2022/11/02 02:52:20;;;;;;;9.52;1.27;;;14.70;99.60;;;;;;5046887;28;20104;-74
2022/11/02 02:54:48;;;;;;;5.70;1.20;;;14.70;99.70;;;;;;5043910;28;20025;-71
2022/11/02 02:57:20;;;;;;;11.65;1.42;;;14.70;99.90;;;;;;5073789;28;20025;-73
2022/11/02 02:59:47;;;;;;;7.80;1.60;;;14.80;99.90;;;;;;5043066;28;20150;-74
2022/11/02 03:02:22;;;;;;;10.95;1.23;;;14.80;99.90;;;;;;5043741;28;20017;-74
2022/11/02 03:04:50;;;;;;;11.00;1.40;;;14.80;99.90;;;;;;5044839;28;20025;-75
2022/11/02 03:07:24;;;;;;;8.32;1.17;;;14.90;99.90;;;;;;5049875;28;20071;-72
2022/11/02 03:10:32;;;;;;;8.18;1.30;;;14.70;99.90;;;;;;5043352;28;20334;-73
2022/11/02 03:13:17;;;;;;;7.88;1.58;;;14.70;99.90;;;;;;5046638;28;20105;-72
2022/11/02 03:16:18;;;;;;;9.57;1.00;;;14.80;99.90;;;;;;5052646;28;20075;-74
2022/11/02 03:18:55;;;;;;;6.95;1.42;;;14.70;99.90;;;;;;5041420;28;20038;-71
2022/11/02 03:21:42;;;;;;;6.18;1.08;;;14.60;99.90;;;;;;5046820;28;20105;-75
2022/11/02 03:24:07;;;;;;;10.18;1.52;;;14.60;99.90;;;;;;5044361;28;20033;-71
2022/11/02 03:27:00;;;;;;;9.90;1.20;;;14.40;99.90;;;;;;5039891;28;20026;-74
2022/11/02 03:29:46;;;;;;;15.82;1.83;;;14.40;99.90;;;;;;5043975;28;20090;-75
2022/11/02 03:32:40;;;;;;;8.40;1.50;;;14.50;99.90;;;;;;5040620;28;20057;-75
2022/11/02 03:35:31;;;;;;;6.40;1.20;;;14.40;99.90;;;;;;5041106;28;20105;-71
2022/11/02 03:38:02;;;;;;;11.52;1.42;;;14.30;99.90;;;;;;5038242;28;20055;-72
2022/11/02 03:40:32;;;;;;;12.00;1.73;;;14.40;99.90;;;;;;5072557;28;20026;-72
2022/11/02 03:42:59;;;;;;;7.32;1.30;;;14.30;99.90;;;;;;5039706;28;20025;-72
2022/11/02 03:45:35;;;;;;;13.90;1.83;;;14.30;99.90;;;;;;5057885;28;20057;-72
2022/11/02 03:48:05;;;;;;;8.55;1.38;;;14.30;99.90;;;;;;5072064;28;20064;-71
2022/11/02 03:50:37;;;;;;;5.50;1.20;;;14.30;99.90;;;;;;5041495;28;20463;-71
2022/11/02 03:53:12;;;;;;;11.07;1.15;;;14.30;99.90;;;;;;5041241;28;20094;-71
2022/11/02 03:56:07;;;;;;;5.85;1.45;;;14.20;99.90;;;;;;5046582;28;20026;-69
2022/11/02 03:58:35;;;;;;;12.80;1.90;;;14.30;99.90;;;;;;5041233;28;20045;-71
2022/11/02 04:01:07;;;;;;;3.92;1.00;;;14.20;99.90;;;;;;5044968;28;20047;-72
2022/11/02 04:03:33;;;;;;;12.30;1.77;;;14.10;99.90;;;;;;5038805;28;20075;-71
2022/11/02 04:05:59;;;;;;;8.98;1.50;;;14.00;99.90;;;;;;5042296;28;20029;-71
2022/11/02 04:08:34;;;;;;;14.23;1.67;;;14.00;99.90;;;;;;5042474;28;20498;-71
2022/11/02 04:16:32;;;;;;;12.90;1.83;;;13.90;99.90;;;;;;5042600;28;20358;-70
2022/11/02 04:25:14;;;;;;;6.88;1.35;;;13.90;99.90;;;;;;5038366;28;20048;-72
2022/11/02 04:27:17;;;;;;;11.90;1.92;;;13.90;99.90;;;;;;5039422;28;20425;-73
2022/11/02 04:29:43;;;;;;;11.10;1.50;;;14.00;99.90;;;;;;5040163;28;20097;-75
2022/11/02 04:32:09;;;;;;;11.45;1.65;;;14.00;99.90;;;;;;5040040;28;20025;-74
2022/11/02 04:34:35;;;;;;;8.23;1.13;;;14.00;99.90;;;;;;5039695;28;20315;-75
2022/11/02 04:38:38;;;;;;;9.77;1.00;;;13.90;99.90;;;;;;5039620;28;20022;-73
2022/11/02 04:39:46;;;;;;;10.73;1.77;;;14.00;99.90;;;;;;5041109;28;20025;-75
2022/11/02 04:42:12;;;;;;;16.88;1.92;;;14.00;99.90;;;;;;5041951;28;20614;-74
2022/11/02 04:44:38;;;;;;;7.40;1.25;;;14.00;99.90;;;;;;5038037;28;20342;-72
2022/11/02 04:47:05;;;;;;;14.48;1.35;;;14.00;99.90;;;;;;5037984;28;20033;-71
2022/11/02 04:49:31;;;;;;;14.00;1.88;;;14.00;99.90;;;;;;5045712;28;20060;-72
2022/11/02 04:51:59;;;;;;;12.27;1.58;;;14.00;99.90;;;;;;5043964;28;20048;-72
2022/11/02 04:54:25;;;;;;;10.88;1.98;;;13.90;99.90;;;;;;5047901;28;20025;-71
2022/11/02 04:56:50;;;;;;;13.50;1.63;;;13.90;99.90;;;;;;5044958;28;20493;-75
2022/11/02 04:59:18;;;;;;;11.20;1.58;;;13.90;99.90;;;;;;5044929;28;20025;-74
2022/11/02 05:01:44;;;;;;;6.97;1.15;;;13.90;99.90;;;;;;5036673;28;20059;-74
2022/11/02 05:04:12;;;;;;;14.88;1.75;;;13.90;99.90;;;;;;5041427;28;20053;-74
2022/11/02 05:06:37;;;;;;;7.07;1.52;;;13.80;99.90;;;;;;5042054;28;20082;-75
2022/11/02 05:09:05;;;;;;;22.30;1.88;;;13.90;99.90;;;;;;5043436;28;20033;-75
2022/11/02 05:11:31;;;;;;;5.32;1.60;;;13.80;99.90;;;;;;5039797;28;20045;-73
2022/11/02 05:13:57;;;;;;;15.43;1.80;;;13.80;99.90;;;;;;5039823;28;20106;-72
2022/11/02 05:16:22;;;;;;;8.38;1.30;;;13.80;99.90;;;;;;5041944;28;20095;-74
2022/11/02 05:18:48;;;;;;;10.25;1.48;;;13.80;99.90;;;;;;5037742;28;20041;-75
2022/11/02 05:21:13;;;;;;;9.27;1.33;;;13.70;99.90;;;;;;5047811;28;20068;-75
2022/11/02 05:23:39;;;;;;;8.48;1.23;;;13.80;99.90;;;;;;5043057;28;20123;-75
2022/11/02 05:26:09;;;;;;;15.77;1.73;;;13.80;99.90;;;;;;5073410;28;20029;-74
2022/11/02 05:28:34;;;;;;;14.52;1.70;;;13.80;99.90;;;;;;5043257;28;20033;-72
2022/11/02 05:31:01;;;;;;;14.63;1.60;;;13.80;99.90;;;;;;5042252;28;20085;-73
2022/11/02 05:33:28;;;;;;;5.82;1.02;;;13.70;99.90;;;;;;5042533;28;20094;-74
2022/11/02 05:35:57;;;;;;;10.52;1.90;;;13.70;99.90;;;;;;5040760;28;20071;-74
2022/11/02 05:38:26;;;;;;;10.55;1.60;;;13.80;99.90;;;;;;5038144;28;20416;-74
2022/11/02 05:40:59;;;;;;;10.38;1.58;;;13.80;99.90;;;;;;5068542;28;20030;-74
2022/11/02 05:43:27;;;;;;;15.75;1.85;;;13.80;99.90;;;;;;5071985;28;20071;-74
2022/11/02 05:45:55;;;;;;;13.40;1.42;;;13.70;99.90;;;;;;5042479;28;20057;-74
2022/11/02 05:48:24;;;;;;;10.77;1.70;;;13.70;99.90;;;;;;5042916;28;20100;-75
2022/11/02 05:50:55;;;;;;;6.50;1.17;;;13.70;99.90;;;;;;5040648;28;20068;-75
2022/11/02 05:53:21;;;;;;;9.20;2.10;;;13.70;99.90;;;;;;5038916;28;20025;-75
2022/11/02 05:55:46;;;;;;;8.05;1.35;;;13.70;99.90;;;;;;5040587;28;20028;-72
2022/11/02 05:58:12;;;;;;;16.15;1.65;;;13.60;99.90;;;;;;5040913;28;20030;-74
2022/11/02 06:00:40;;;;;;;12.70;1.80;;;13.60;99.90;;;;;;5043274;28;20017;-73
2022/11/02 06:03:06;;;;;;;7.28;2.00;;;13.60;99.90;;;;;;5045901;28;20463;-73
2022/11/02 06:05:32;;;;;;;12.05;1.40;;;13.60;99.90;;;;;;5049136;28;20047;-74
2022/11/02 06:08:01;;;;;;;12.85;2.17;;;13.60;99.90;;;;;;5044891;28;20358;-74
2022/11/02 06:10:28;;;;;;;12.52;1.65;;;13.60;99.90;;;;;;5043859;28;20043;-73
2022/11/02 06:12:58;;;;;;;9.35;1.67;;;13.60;99.90;;;;;;5046597;28;20040;-72
2022/11/02 06:15:26;;;;;;;7.68;1.00;;;13.70;99.90;;;;;;5050952;28;20493;-75
2022/11/02 06:17:52;;;;;;;11.02;1.55;;;13.70;99.90;;;;;;5040332;28;20037;-74
2022/11/02 06:20:20;;;;;;;14.80;1.48;;;13.70;99.90;;;;;;5045187;28;20097;-75
2022/11/02 06:22:46;;;;;;;21.00;1.92;;;13.70;99.90;;;;;;5043096;28;20025;-75
2022/11/02 06:25:12;;;;;;;14.98;2.63;;;13.70;99.90;;;;;;5044690;28;20421;-74
2022/11/02 06:27:38;;;;;;;8.63;1.48;;;13.70;99.90;;;;;;5044056;28;20136;-74
2022/11/02 06:30:07;;;;;;;14.30;1.35;;;13.50;99.90;;;;;;5041122;28;20160;-74
2022/11/02 06:32:33;;;;;;;13.45;1.92;;;13.60;99.90;;;;;;5041883;28;20026;-74
2022/11/02 06:34:59;;;;;;;9.95;1.77;;;13.70;99.90;;;;;;5050336;28;20040;-74
2022/11/02 06:37:27;;;;;;;18.05;1.67;;;13.70;99.90;;;;;;5043657;28;20582;-74
2022/11/02 06:39:52;;;;;;;12.77;1.63;;;13.80;99.90;;;;;;5058503;28;20063;-71
2022/11/02 06:42:23;;;;;;;11.68;1.40;;;13.70;99.90;;;;;;5042489;28;20076;-71
2022/11/02 06:44:51;;;;;;;16.60;2.40;;;13.80;99.90;;;;;;5042536;28;20029;-75
2022/11/02 06:47:16;;;;;;;15.18;1.88;;;13.80;99.90;;;;;;5042122;28;20095;-73
2022/11/02 06:49:42;;;;;;;14.38;1.98;;;13.80;99.90;;;;;;5043055;28;20017;-73
2022/11/02 06:52:08;;;;;;;14.48;1.90;;;13.80;99.90;;;;;;5044012;28;20074;-73
2022/11/02 06:54:33;;;;;;;11.27;1.38;;;13.70;99.90;;;;;;5041103;28;20017;-72
2022/11/02 06:56:59;;;;;;;13.55;2.15;;;13.80;99.90;;;;;;5050595;28;20025;-75
2022/11/02 06:59:25;;;;;;;17.90;1.60;;;13.80;99.90;;;;;;5042781;28;20407;-75
2022/11/02 07:01:53;;;;;;;14.18;2.15;;;13.80;99.90;;;;;;5041033;28;20029;-73
2022/11/02 07:04:19;;;;;;;12.40;1.70;;;13.90;99.90;;;;;;5040511;28;20071;-73
2022/11/02 07:06:47;;;;;;;9.75;1.88;;;13.80;99.90;;;;;;5043950;28;20044;-72
2022/11/02 07:09:12;;;;;;;4.38;1.33;;;13.90;99.90;;;;;;5040126;28;20029;-72
2022/11/02 07:11:38;;;;;;;20.35;1.45;;;13.80;99.90;;;;;;5039516;28;20071;-71
2022/11/02 07:14:06;;;;;;;15.38;1.40;;;13.90;99.90;;;;;;5044060;28;20155;-73
2022/11/02 07:16:31;;;;;;;14.38;1.40;;;13.80;99.90;;;;;;5044582;28;20025;-72
2022/11/02 07:18:57;;;;;;;13.52;1.88;;;13.80;99.90;;;;;;5041040;28;20080;-73
2022/11/02 07:21:23;;;;;;;11.30;1.25;;;13.90;99.90;;;;;;5041536;28;20021;-71
2022/11/02 07:23:49;;;;;;;10.95;1.45;;;13.90;99.90;;;;;;5040384;28;20369;-72
2022/11/02 07:26:15;;;;;;;6.40;1.55;;;13.80;99.90;;;;;;5043055;28;20029;-75
2022/11/02 07:28:40;;;;;;;8.85;1.30;;;13.90;99.90;;;;;;5039394;28;20370;-72
2022/11/02 07:31:08;;;;;;;12.35;1.23;;;13.90;99.90;;;;;;5039290;28;20034;-72
2022/11/02 07:33:34;;;;;;;13.52;1.58;;;13.90;99.90;;;;;;5042332;28;20017;-72
2022/11/02 07:36:02;;;;;;;11.35;1.85;;;13.90;99.90;;;;;;5041499;28;20032;-72
2022/11/02 07:38:28;;;;;;;20.42;1.85;;;13.80;99.90;;;;;;5042821;28;20059;-74
2022/11/02 07:40:54;;;;;;;14.68;1.52;;;13.80;99.90;;;;;;5040551;28;20029;-72
2022/11/02 07:43:19;;;;;;;16.02;1.65;;;13.80;99.90;;;;;;5042926;28;20017;-73
2022/11/02 07:45:47;;;;;;;6.68;1.20;;;13.80;99.90;;;;;;5036655;28;20122;-74
2022/11/02 07:48:18;;;;;;;11.82;1.80;;;13.80;99.90;;;;;;5039982;28;21065;-72
2022/11/02 07:50:43;;;;;;;11.50;1.60;;;13.80;99.90;;;;;;5038946;28;20047;-75
2022/11/02 07:53:11;;;;;;;11.07;1.55;;;13.90;99.90;;;;;;5047725;28;20025;-75
2022/11/02 07:55:38;;;;;;;11.70;1.35;;;13.90;99.90;;;;;;5041284;28;20086;-71
2022/11/02 07:58:09;;;;;;;12.98;1.90;;;13.90;99.90;;;;;;5040900;28;20061;-75
2022/11/02 08:00:37;;;;;;;9.15;1.55;;;13.90;99.90;;;;;;5043272;28;20436;-72
2022/11/02 08:03:08;;;;;;;9.80;1.58;;;13.90;99.90;;;;;;5041668;28;20713;-74
2022/11/02 08:05:36;;;;;;;11.90;1.50;;;14.00;99.90;;;;;;5041630;28;20033;-72
2022/11/02 08:08:10;;;;;;;7.28;1.92;;;14.10;99.90;;;;;;5039075;28;20096;-76
2022/11/02 08:10:36;;;;;;;13.40;2.05;;;14.20;99.90;;;;;;5045567;28;20031;-73
2022/11/02 08:13:02;;;;;;;6.53;1.00;;;14.20;99.90;;;;;;5038034;28;20095;-72
2022/11/02 08:15:28;;;;;;;9.90;1.45;;;14.20;99.80;;;;;;5041820;28;20086;-72
2022/11/02 08:18:23;;;;;;;7.35;0.93;;;14.20;99.80;;;;;;5040459;28;20037;-75
2022/11/02 08:20:50;;;;;;;16.65;1.98;;;14.20;99.90;;;;;;5045266;28;20061;-72
2022/11/02 08:23:17;;;;;;;8.23;1.08;;;14.10;99.80;;;;;;5042746;28;20090;-72
2022/11/02 08:25:44;;;;;;;14.68;1.48;;;14.20;99.90;;;;;;5041118;28;20620;-74
2022/11/02 08:28:18;;;;;;;12.00;1.40;;;14.10;99.80;;;;;;5047877;28;20025;-72
2022/11/02 08:30:44;;;;;;;11.38;1.55;;;14.20;99.80;;;;;;5038312;28;20056;-72
2022/11/02 08:33:14;;;;;;;16.20;1.73;;;14.10;99.70;;;;;;5043719;28;20057;-71
2022/11/02 08:35:41;;;;;;;10.98;1.65;;;14.10;99.50;;;;;;5041810;28;20021;-76
2022/11/02 08:38:07;;;;;;;10.77;1.65;;;14.10;99.50;;;;;;5040716;28;20036;-75
2022/11/02 08:40:34;;;;;;;12.18;1.75;;;14.10;99.50;;;;;;5042866;28;20022;-72
2022/11/02 08:43:04;;;;;;;16.67;1.40;;;14.20;99.60;;;;;;5047124;28;20028;-72
2022/11/02 08:45:31;;;;;;;7.97;1.17;;;14.20;99.40;;;;;;5040250;28;20024;-76
2022/11/02 08:47:57;;;;;;;9.45;1.38;;;14.30;98.90;;;;;;5042721;28;20037;-72
2022/11/02 08:50:23;;;;;;;7.07;1.00;;;14.40;98.90;;;;;;5039339;28;20082;-72
2022/11/02 08:52:53;;;;;;;10.20;1.27;;;14.40;99.00;;;;;;5038843;28;20044;-72
2022/11/02 08:55:19;;;;;;;14.90;1.70;;;14.30;99.10;;;;;;5045866;28;20025;-73
2022/11/02 08:57:52;;;;;;;8.65;1.10;;;14.40;98.80;;;;;;5040828;28;20083;-73
2022/11/02 09:00:20;;;;;;;9.93;1.33;;;14.40;98.80;;;;;;5040482;28;20095;-75
2022/11/02 09:03:07;;;;;;;9.48;1.40;;;14.50;98.70;;;;;;5045034;28;20036;-73
2022/11/02 09:05:38;;;;;;;13.00;1.60;;;14.50;98.80;;;;;;5038492;28;20461;-73
2022/11/02 09:08:06;;;;;;;6.20;1.33;;;14.60;98.90;;;;;;5042648;28;20021;-78
2022/11/02 09:10:34;;;;;;;10.50;1.38;;;14.70;98.70;;;;;;5038235;28;20074;-73
2022/11/02 09:13:02;;;;;;;10.80;1.58;;;14.60;98.70;;;;;;5039316;28;20088;-75
2022/11/02 09:15:35;;;;;;;11.88;1.58;;;14.80;98.50;;;;;;5038670;28;20693;-73
2022/11/02 09:18:01;;;;;;;7.32;1.08;;;14.90;98.00;;;;;;5047576;28;20059;-74
2022/11/02 09:20:26;;;;;;;12.57;1.48;;;14.80;98.20;;;;;;5041495;28;20451;-72
2022/11/02 09:22:56;;;;;;;14.55;1.58;;;14.80;98.40;;;;;;5046485;28;20024;-76
2022/11/02 09:25:23;;;;;;;4.28;1.17;;;14.70;98.00;;;;;;5038458;28;20459;-75
2022/11/02 09:27:53;;;;;;;19.38;1.95;;;14.60;98.60;;;;;;5036443;28;20081;-73
2022/11/02 09:30:19;;;;;;;13.57;1.75;;;14.70;98.60;;;;;;5042065;28;20043;-76
2022/11/02 09:33:19;;;;;;;15.18;1.48;;;14.70;98.60;;;;;;5036752;28;20029;-74
2022/11/02 09:35:48;;;;;;;12.82;1.65;;;15.10;98.40;;;;;;5042884;28;20466;-72
2022/11/02 09:38:19;;;;;;;11.85;1.60;;;15.30;98.00;;;;;;5048921;28;20040;-76
2022/11/02 09:40:59;;;;;;;15.57;1.92;;;15.40;97.70;;;;;;5047252;28;20021;-74
2022/11/02 09:44:06;;;;;;;10.75;1.33;;;15.20;97.20;;;;;;5041269;28;20076;-74
2022/11/02 09:46:37;;;;;;;15.80;1.80;;;15.40;97.40;;;;;;5038420;28;20391;-74
2022/11/02 09:49:21;;;;;;;11.05;1.95;;;15.60;97.00;;;;;;5044636;28;20104;-73
2022/11/02 09:51:50;;;;;;;13.02;1.63;;;15.80;96.80;;;;;;5053673;28;20673;-75
2022/11/02 09:54:34;;;;;;;13.52;1.73;;;16.10;96.30;;;;;;5079362;28;20046;-74
2022/11/02 09:57:11;;;;;;;14.23;1.40;;;16.50;95.90;;;;;;5044871;28;20033;-75
2022/11/02 09:59:43;;;;;;;22.33;2.40;;;16.60;95.40;;;;;;5041930;28;20022;-72
2022/11/02 10:02:32;;;;;;;9.90;1.45;;;17.20;94.50;;;;;;5041747;28;20021;-72
2022/11/02 10:05:19;;;;;;;19.00;1.55;;;17.10;94.20;;;;;;5042518;28;20101;-72
2022/11/02 10:08:01;;;;;;;12.25;2.28;;;17.30;94.20;;;;;;5058666;28;20112;-73
2022/11/02 10:10:38;;;;;;;9.05;1.73;;;17.30;94.00;;;;;;5041206;28;20519;-73
2022/11/02 10:13:09;;;;;;;5.75;1.40;;;16.90;94.10;;;;;;5049348;28;20047;-71
2022/11/02 10:15:44;;;;;;;6.38;1.52;;;16.90;94.00;;;;;;5046334;28;20030;-77
2022/11/02 10:18:22;;;;;;;15.20;1.98;;;16.90;93.40;;;;;;5040951;28;20033;-73
2022/11/02 10:20:56;;;;;;;14.55;3.05;;;16.80;93.40;;;;;;5073676;28;20032;-75
2022/11/02 10:23:40;;;;;;;10.80;2.10;;;16.60;92.60;;;;;;5045622;28;20013;-72
2022/11/02 10:26:16;;;;;;;10.02;1.50;;;16.30;93.00;;;;;;5045532;28;20104;-72
2022/11/02 10:28:47;;;;;;;15.90;2.38;;;16.30;92.80;;;;;;5049134;28;20589;-71
2022/11/02 10:31:33;;;;;;;9.27;1.48;;;16.40;91.70;;;;;;5041685;28;20075;-71
2022/11/02 10:34:26;;;;;;;11.07;1.73;;;16.40;91.00;;;;;;5046366;28;20029;-71
2022/11/02 10:36:55;;;;;;;11.82;1.85;;;16.30;91.50;;;;;;5042737;28;20136;-71
2022/11/02 10:39:45;;;;;;;9.88;1.63;;;16.60;91.70;;;;;;5037745;28;20048;-74
2022/11/02 10:42:17;;;;;;;12.32;1.90;;;17.00;91.00;;;;;;5038659;28;20025;-72
2022/11/02 10:45:03;;;;;;;9.60;1.58;;;16.90;91.40;;;;;;5039518;28;20033;-76
2022/11/02 10:48:11;;;;;;;11.50;1.85;;;17.00;91.70;;;;;;5040164;28;20031;-68
2022/11/02 10:50:49;;;;;;;10.50;1.58;;;17.70;90.50;;;;;;5038375;28;20029;-74
2022/11/02 10:53:18;;;;;;;11.85;2.10;;;17.90;88.90;;;;;;5073554;28;20517;-74
2022/11/02 10:56:00;;;;;;;8.80;1.40;;;17.50;89.60;;;;;;5039362;28;20443;-71
2022/11/02 10:58:29;;;;;;;14.45;1.45;;;17.20;90.00;;;;;;5040342;28;20101;-71
2022/11/02 11:01:13;;;;;;;10.93;2.25;;;17.00;90.30;;;;;;5041518;28;20061;-77
2022/11/02 11:03:58;;;;;;;9.38;1.50;;;16.70;90.20;;;;;;5039545;28;20028;-75
2022/11/02 11:06:28;;;;;;;12.00;1.60;;;16.40;90.80;;;;;;5043780;28;20048;-75
2022/11/02 11:09:24;;;;;;;6.95;1.33;;;16.50;90.80;;;;;;5040631;28;20120;-76
2022/11/02 11:11:53;;;;;;;7.03;1.25;;;16.90;91.00;;;;;;5041794;28;20293;-72
2022/11/02 11:14:22;;;;;;;7.20;1.63;;;16.90;90.20;;;;;;5046748;28;20108;-71
2022/11/02 11:16:52;;;;;;;11.27;1.50;;;17.10;89.60;;;;;;5044670;28;20017;-72
2022/11/02 11:19:18;;;;;;;10.65;1.80;;;16.90;90.20;;;;;;5049650;28;20033;-72
2022/11/02 11:21:44;;;;;;;10.52;1.45;;;16.90;89.40;;;;;;5045749;28;20110;-71
2022/11/02 11:24:20;;;;;;;9.73;1.58;;;16.60;90.40;;;;;;5043346;28;20056;-72
2022/11/02 11:27:01;;;;;;;15.10;1.80;;;16.60;90.30;;;;;;5043995;28;20021;-73
2022/11/02 11:29:34;;;;;;;8.13;1.63;;;16.20;90.20;;;;;;5045847;28;20034;-73
2022/11/02 11:32:01;;;;;;;12.18;1.95;;;16.40;90.50;;;;;;5046360;28;20049;-74
2022/11/02 11:34:34;;;;;;;8.18;1.85;;;16.50;90.60;;;;;;5043489;28;20512;-71
2022/11/02 11:37:19;;;;;;;10.18;1.75;;;16.50;90.70;;;;;;5032537;28;20024;-75
2022/11/02 11:39:49;;;;;;;8.68;1.52;;;17.10;90.40;;;;;;5044729;28;20056;-72
2022/11/02 11:42:27;;;;;;;10.82;1.58;;;17.00;85.60;;;;;;5053886;28;20041;-75
2022/11/02 11:45:03;;;;;;;10.70;1.48;;;17.50;85.80;;;;;;5048078;28;20080;-75
2022/11/02 11:47:37;;;;;;;8.52;1.50;;;17.60;84.60;;;;;;5041149;28;20104;-72
2022/11/02 11:50:16;;;;;;;14.25;1.73;;;18.00;85.00;;;;;;5041432;28;20017;-75
2022/11/02 11:52:42;;;;;;;16.75;2.17;;;18.10;84.90;;;;;;5045135;28;20037;-73
2022/11/02 11:55:30;;;;;;;15.20;1.98;;;18.00;85.50;;;;;;5039990;28;20087;-72
2022/11/02 11:58:21;;;;;;;9.05;1.92;;;18.00;83.40;;;;;;5041973;28;20025;-72
2022/11/02 12:01:15;;;;;;;7.60;1.50;;;18.50;82.60;;;;;;5040920;28;20040;-74
2022/11/02 12:03:54;;;;;;;10.30;1.42;;;18.50;81.50;;;;;;5042620;28;20045;-73
2022/11/02 12:06:19;;;;;;;8.00;1.40;;;18.60;80.80;;;;;;5071674;28;20096;-72
2022/11/02 12:09:02;;;;;;;9.30;1.30;;;18.30;80.90;;;;;;5041486;28;20163;-73
2022/11/02 12:11:40;;;;;;;6.78;1.88;;;18.40;80.00;;;;;;5040380;28;20025;-74
2022/11/02 12:14:12;;;;;;;11.27;1.95;;;18.30;80.40;;;;;;5041813;28;20024;-74
2022/11/02 12:16:59;;;;;;;12.15;1.63;;;18.60;79.90;;;;;;5040597;28;20429;-74
2022/11/02 12:19:55;;;;;;;8.95;1.38;;;18.90;80.80;;;;;;5040455;28;20033;-72
2022/11/02 12:22:39;;;;;;;9.68;1.63;;;19.40;79.10;;;;;;5041533;28;20467;-75
2022/11/02 12:25:15;;;;;;;9.27;1.73;;;19.70;76.40;;;;;;5043086;28;20119;-75
2022/11/02 12:27:58;;;;;;;9.82;1.42;;;19.50;75.40;;;;;;5042156;28;20079;-73
2022/11/02 12:30:33;;;;;;;4.30;1.08;;;19.10;75.00;;;;;;5043413;28;20028;-76
2022/11/02 12:33:22;;;;;;;9.88;1.75;;;18.50;76.40;;;;;;5069217;28;20115;-74
2022/11/02 12:36:10;;;;;;;14.23;1.60;;;18.70;76.80;;;;;;5035536;28;20075;-75
2022/11/02 12:39:00;;;;;;;6.07;1.58;;;19.20;77.10;;;;;;5042379;28;20044;-72
2022/11/02 12:41:51;;;;;;;9.63;1.83;;;19.50;72.60;;;;;;5038933;28;20400;-75
2022/11/02 12:44:42;;;;;;;10.85;1.45;;;19.60;72.60;;;;;;5040198;28;20021;-72
2022/11/02 12:47:31;;;;;;;7.03;1.42;;;19.80;71.70;;;;;;5059160;28;20144;-75
2022/11/02 12:50:22;;;;;;;12.05;1.63;;;20.20;71.30;;;;;;5066383;28;20100;-71
2022/11/02 12:52:47;;;;;;;14.02;1.60;;;20.10;69.60;;;;;;5037100;28;20029;-72
2022/11/02 12:55:23;;;;;;;12.95;1.88;;;20.00;68.60;;;;;;5044472;28;20017;-72
2022/11/02 12:57:55;;;;;;;15.20;2.10;;;20.70;67.20;;;;;;5045784;28;20119;-75
2022/11/02 13:00:24;;;;;;;9.32;1.40;;;23.70;63.30;;;;;;5072849;28;20036;-72
2022/11/02 13:03:07;;;;;;;8.63;1.58;;;22.80;60.20;;;;;;5052130;28;20040;-75
2022/11/02 13:05:49;;;;;;;7.82;1.58;;;24.00;59.60;;;;;;5040778;28;20053;-75
2022/11/02 13:08:21;;;;;;;11.32;1.63;;;25.60;55.20;;;;;;5040606;28;20033;-74
2022/11/02 13:10:57;;;;;;;9.57;1.10;;;28.30;51.70;;;;;;5056032;28;20079;-72
2022/11/02 13:13:41;;;;;;;4.80;1.10;;;30.70;46.20;;;;;;5040889;28;20043;-72
2022/11/02 13:16:08;;;;;;;13.25;1.83;;;31.50;40.80;;;;;;5035895;28;20048;-73
2022/11/02 13:18:52;;;;;;;7.35;1.55;;;33.80;38.10;;;;;;5042243;28;20029;-75